Sacramento-Mather, California
Current Conditions -  °F | °C
As of 2:45 AM on Saturday 25 Oct 2014 (Local Time) from KMHR Reporting Station
Few Clouds Few Clouds  
Wind Chill: 57°   Ceiling: Unl
Heat Index: 57°   Visibility: 10mi
Dew Point: 55°   Wind: 7mph
Humidity: 94%   Direction: 120°ESE
Pressure: 29.94"   Gusts: NA
Location:  38.55°N, 121.3°W
Report Text: KMHR 250945Z 12006KT 10SM FEW100 14/13 A2994
Loading
Personal Weather Stations






























Interactive Weather Map
Tropical Storm Tracking
New forecast layout! Learn more

10-Day Weather Forecast

Advertisements
Track Severe Weather on mobile